NKG weather

Nanjing Lukou Airport
Nanjing, Jiangsu Province, China

Public forecast

Using degrees Celsius for public forecast. Weather courtesy of forecast.io.

Current aviation weather report (METAR) for Nanjing Lukou Airport

Retrieved 2020/04/02 06:00 UTC (44 minutes ago):

ZSNJ 020600Z 06004MPS 020V090 CAVOK 17/04 Q1022 NOSIG

Aviation forecast (TAF) for Nanjing Lukou Airport

Retrieved 2020/04/02 06:03 UTC (41 minutes ago):

TAF ZSNJ 020303Z 0206/0306 07004MPS 3000 HZ NSC TX17/0207Z TN08/0221Z